sensor_id;sensor_type;location;lat;lon;timestamp;P1;durP1;ratioP1;P2;durP2;ratioP2
62724;SDS011;49026;52.600;4.694;2023-05-07T00:00:45;30.98;;;20.73;;
62724;SDS011;49026;52.600;4.694;2023-05-07T00:03:10;30.10;;;19.30;;
62724;SDS011;49026;52.600;4.694;2023-05-07T00:05:36;27.95;;;19.63;;
62724;SDS011;49026;52.600;4.694;2023-05-07T00:08:02;30.02;;;19.27;;
62724;SDS011;49026;52.600;4.694;2023-05-07T00:10:30;26.05;;;18.20;;
62724;SDS011;49026;52.600;4.694;2023-05-07T00:12:58;32.33;;;21.35;;
62724;SDS011;49026;52.600;4.694;2023-05-07T00:15:23;21.20;;;14.35;;
62724;SDS011;49026;52.600;4.694;2023-05-07T00:17:49;23.95;;;14.52;;
62724;SDS011;49026;52.600;4.694;2023-05-07T00:20:16;32.72;;;20.90;;
62724;SDS011;49026;52.600;4.694;2023-05-07T00:22:44;42.13;;;24.38;;
62724;SDS011;49026;52.600;4.694;2023-05-07T00:25:11;44.53;;;23.77;;
62724;SDS011;49026;52.600;4.694;2023-05-07T00:27:39;26.38;;;18.30;;
62724;SDS011;49026;52.600;4.694;2023-05-07T00:30:07;21.90;;;14.85;;
62724;SDS011;49026;52.600;4.694;2023-05-07T00:32:33;28.65;;;18.92;;
62724;SDS011;49026;52.600;4.694;2023-05-07T00:34:58;33.55;;;20.63;;
62724;SDS011;49026;52.600;4.694;2023-05-07T00:37:23;24.65;;;16.10;;
62724;SDS011;49026;52.600;4.694;2023-05-07T00:39:53;33.10;;;21.10;;
62724;SDS011;49026;52.600;4.694;2023-05-07T00:42:18;29.90;;;20.50;;
62724;SDS011;49026;52.600;4.694;2023-05-07T00:44:44;25.20;;;18.63;;
62724;SDS011;49026;52.600;4.694;2023-05-07T00:47:11;24.77;;;16.58;;
62724;SDS011;49026;52.600;4.694;2023-05-07T00:49:38;33.15;;;19.17;;
62724;SDS011;49026;52.600;4.694;2023-05-07T00:52:06;29.80;;;20.58;;
62724;SDS011;49026;52.600;4.694;2023-05-07T00:54:34;28.60;;;19.30;;
62724;SDS011;49026;52.600;4.694;2023-05-07T00:56:59;30.50;;;19.58;;
62724;SDS011;49026;52.600;4.694;2023-05-07T00:59:25;26.30;;;16.15;;
62724;SDS011;49026;52.600;4.694;2023-05-07T01:01:51;31.20;;;19.40;;
62724;SDS011;49026;52.600;4.694;2023-05-07T01:04:17;24.20;;;16.85;;
62724;SDS011;49026;52.600;4.694;2023-05-07T01:06:42;23.83;;;17.60;;
62724;SDS011;49026;52.600;4.694;2023-05-07T01:09:10;24.27;;;16.00;;
62724;SDS011;49026;52.600;4.694;2023-05-07T01:11:38;13.10;;;7.55;;
62724;SDS011;49026;52.600;4.694;2023-05-07T01:14:04;25.50;;;16.35;;
62724;SDS011;49026;52.600;4.694;2023-05-07T01:16:30;27.35;;;18.00;;
62724;SDS011;49026;52.600;4.694;2023-05-07T01:18:56;32.42;;;17.80;;
62724;SDS011;49026;52.600;4.694;2023-05-07T01:21:24;27.88;;;19.98;;
62724;SDS011;49026;52.600;4.694;2023-05-07T01:23:51;26.90;;;18.63;;
62724;SDS011;49026;52.600;4.694;2023-05-07T01:26:20;28.02;;;18.67;;
62724;SDS011;49026;52.600;4.694;2023-05-07T01:28:45;33.65;;;21.52;;
62724;SDS011;49026;52.600;4.694;2023-05-07T01:31:10;31.88;;;19.70;;
62724;SDS011;49026;52.600;4.694;2023-05-07T01:33:38;18.23;;;11.73;;
62724;SDS011;49026;52.600;4.694;2023-05-07T01:36:07;26.10;;;16.80;;
62724;SDS011;49026;52.600;4.694;2023-05-07T01:38:36;28.45;;;19.80;;
62724;SDS011;49026;52.600;4.694;2023-05-07T01:41:04;29.00;;;20.38;;
62724;SDS011;49026;52.600;4.694;2023-05-07T01:43:32;25.88;;;18.45;;
62724;SDS011;49026;52.600;4.694;2023-05-07T01:45:58;27.70;;;18.35;;
62724;SDS011;49026;52.600;4.694;2023-05-07T01:48:24;28.10;;;19.60;;
62724;SDS011;49026;52.600;4.694;2023-05-07T01:50:50;24.40;;;16.40;;
62724;SDS011;49026;52.600;4.694;2023-05-07T01:53:16;26.98;;;18.42;;
62724;SDS011;49026;52.600;4.694;2023-05-07T01:55:44;28.42;;;19.50;;
62724;SDS011;49026;52.600;4.694;2023-05-07T01:58:10;29.58;;;19.95;;
62724;SDS011;49026;52.600;4.694;2023-05-07T02:00:35;40.42;;;22.27;;
62724;SDS011;49026;52.600;4.694;2023-05-07T02:03:01;37.90;;;21.27;;
62724;SDS011;49026;52.600;4.694;2023-05-07T02:05:26;42.70;;;23.55;;
62724;SDS011;49026;52.600;4.694;2023-05-07T02:07:54;39.78;;;23.27;;
62724;SDS011;49026;52.600;4.694;2023-05-07T02:10:19;28.90;;;20.20;;
62724;SDS011;49026;52.600;4.694;2023-05-07T02:12:44;25.63;;;17.95;;
62724;SDS011;49026;52.600;4.694;2023-05-07T02:15:12;35.13;;;21.52;;
62724;SDS011;49026;52.600;4.694;2023-05-07T02:20:31;30.00;;;19.85;;
62724;SDS011;49026;52.600;4.694;2023-05-07T02:23:01;37.22;;;21.60;;
62724;SDS011;49026;52.600;4.694;2023-05-07T02:25:27;31.15;;;20.30;;
62724;SDS011;49026;52.600;4.694;2023-05-07T02:27:54;33.97;;;18.92;;
62724;SDS011;49026;52.600;4.694;2023-05-07T02:30:20;36.97;;;19.92;;
62724;SDS011;49026;52.600;4.694;2023-05-07T02:32:48;27.08;;;17.00;;
62724;SDS011;49026;52.600;4.694;2023-05-07T02:35:16;34.00;;;20.05;;
62724;SDS011;49026;52.600;4.694;2023-05-07T02:37:42;50.03;;;26.77;;
62724;SDS011;49026;52.600;4.694;2023-05-07T02:40:07;38.67;;;24.58;;
62724;SDS011;49026;52.600;4.694;2023-05-07T02:42:35;40.78;;;25.83;;
62724;SDS011;49026;52.600;4.694;2023-05-07T02:45:01;33.08;;;21.30;;
62724;SDS011;49026;52.600;4.694;2023-05-07T02:47:26;39.67;;;23.85;;
62724;SDS011;49026;52.600;4.694;2023-05-07T02:49:53;41.53;;;26.83;;
62724;SDS011;49026;52.600;4.694;2023-05-07T02:52:19;38.10;;;21.50;;
62724;SDS011;49026;52.600;4.694;2023-05-07T02:54:45;41.10;;;24.92;;
62724;SDS011;49026;52.600;4.694;2023-05-07T02:57:10;48.13;;;23.42;;
62724;SDS011;49026;52.600;4.694;2023-05-07T02:59:35;36.95;;;22.15;;
62724;SDS011;49026;52.600;4.694;2023-05-07T03:02:01;37.63;;;25.42;;
62724;SDS011;49026;52.600;4.694;2023-05-07T03:04:26;41.38;;;25.77;;
62724;SDS011;49026;52.600;4.694;2023-05-07T03:06:52;37.53;;;22.70;;
62724;SDS011;49026;52.600;4.694;2023-05-07T03:09:17;38.72;;;23.55;;
62724;SDS011;49026;52.600;4.694;2023-05-07T03:11:42;38.97;;;23.00;;
62724;SDS011;49026;52.600;4.694;2023-05-07T03:14:07;39.13;;;23.98;;
62724;SDS011;49026;52.600;4.694;2023-05-07T03:16:33;40.92;;;25.85;;
62724;SDS011;49026;52.600;4.694;2023-05-07T03:18:58;41.45;;;24.90;;
62724;SDS011;49026;52.600;4.694;2023-05-07T03:21:23;41.03;;;26.90;;
62724;SDS011;49026;52.600;4.694;2023-05-07T03:23:51;30.10;;;19.42;;
62724;SDS011;49026;52.600;4.694;2023-05-07T03:26:16;33.50;;;21.95;;
62724;SDS011;49026;52.600;4.694;2023-05-07T03:28:42;35.35;;;21.45;;
62724;SDS011;49026;52.600;4.694;2023-05-07T03:31:08;34.40;;;20.60;;
62724;SDS011;49026;52.600;4.694;2023-05-07T03:33:33;26.70;;;17.10;;
62724;SDS011;49026;52.600;4.694;2023-05-07T03:35:59;32.75;;;21.77;;
62724;SDS011;49026;52.600;4.694;2023-05-07T03:38:25;32.08;;;22.15;;
62724;SDS011;49026;52.600;4.694;2023-05-07T03:40:53;23.38;;;14.63;;
62724;SDS011;49026;52.600;4.694;2023-05-07T03:43:18;33.53;;;19.83;;
62724;SDS011;49026;52.600;4.694;2023-05-07T03:45:43;30.15;;;20.00;;
62724;SDS011;49026;52.600;4.694;2023-05-07T03:48:09;30.30;;;19.02;;
62724;SDS011;49026;52.600;4.694;2023-05-07T03:50:34;30.33;;;19.15;;
62724;SDS011;49026;52.600;4.694;2023-05-07T03:52:59;26.52;;;16.73;;
62724;SDS011;49026;52.600;4.694;2023-05-07T03:55:25;31.65;;;20.40;;
62724;SDS011;49026;52.600;4.694;2023-05-07T03:57:50;31.35;;;18.65;;
62724;SDS011;49026;52.600;4.694;2023-05-07T04:00:15;14.27;;;9.25;;
62724;SDS011;49026;52.600;4.694;2023-05-07T04:02:41;27.02;;;14.73;;
62724;SDS011;49026;52.600;4.694;2023-05-07T04:05:06;24.58;;;16.55;;
62724;SDS011;49026;52.600;4.694;2023-05-07T04:07:34;18.92;;;12.77;;
62724;SDS011;49026;52.600;4.694;2023-05-07T04:10:07;21.33;;;12.60;;
62724;SDS011;49026;52.600;4.694;2023-05-07T04:12:34;22.02;;;16.60;;
62724;SDS011;49026;52.600;4.694;2023-05-07T04:15:00;25.27;;;16.58;;
62724;SDS011;49026;52.600;4.694;2023-05-07T04:17:29;32.67;;;19.95;;
62724;SDS011;49026;52.600;4.694;2023-05-07T04:19:55;40.53;;;23.55;;
62724;SDS011;49026;52.600;4.694;2023-05-07T04:22:20;37.75;;;21.15;;
62724;SDS011;49026;52.600;4.694;2023-05-07T04:24:48;39.78;;;23.00;;
62724;SDS011;49026;52.600;4.694;2023-05-07T04:27:16;44.22;;;22.35;;
62724;SDS011;49026;52.600;4.694;2023-05-07T04:29:43;39.33;;;21.20;;
62724;SDS011;49026;52.600;4.694;2023-05-07T04:32:12;39.38;;;23.38;;
62724;SDS011;49026;52.600;4.694;2023-05-07T04:34:40;39.15;;;22.38;;
62724;SDS011;49026;52.600;4.694;2023-05-07T04:37:06;32.95;;;19.58;;
62724;SDS011;49026;52.600;4.694;2023-05-07T04:39:32;40.00;;;22.13;;
62724;SDS011;49026;52.600;4.694;2023-05-07T04:41:57;33.47;;;20.58;;
62724;SDS011;49026;52.600;4.694;2023-05-07T04:44:22;47.45;;;23.23;;
62724;SDS011;49026;52.600;4.694;2023-05-07T04:46:50;48.63;;;25.80;;
62724;SDS011;49026;52.600;4.694;2023-05-07T04:49:15;49.40;;;25.60;;
62724;SDS011;49026;52.600;4.694;2023-05-07T04:51:40;51.42;;;25.25;;
62724;SDS011;49026;52.600;4.694;2023-05-07T04:54:07;49.85;;;25.52;;
62724;SDS011;49026;52.600;4.694;2023-05-07T04:56:33;51.80;;;25.92;;
62724;SDS011;49026;52.600;4.694;2023-05-07T04:58:58;48.38;;;25.42;;
62724;SDS011;49026;52.600;4.694;2023-05-07T05:01:36;50.72;;;25.23;;
62724;SDS011;49026;52.600;4.694;2023-05-07T05:04:01;41.75;;;22.67;;
62724;SDS011;49026;52.600;4.694;2023-05-07T05:06:28;41.97;;;21.23;;
62724;SDS011;49026;52.600;4.694;2023-05-07T05:08:54;36.83;;;21.00;;
62724;SDS011;49026;52.600;4.694;2023-05-07T05:11:19;36.17;;;19.33;;
62724;SDS011;49026;52.600;4.694;2023-05-07T05:13:45;32.80;;;20.30;;
62724;SDS011;49026;52.600;4.694;2023-05-07T05:16:13;31.65;;;18.73;;
62724;SDS011;49026;52.600;4.694;2023-05-07T05:18:38;38.45;;;21.63;;
62724;SDS011;49026;52.600;4.694;2023-05-07T05:21:05;34.22;;;20.98;;
62724;SDS011;49026;52.600;4.694;2023-05-07T05:23:31;31.48;;;20.60;;
62724;SDS011;49026;52.600;4.694;2023-05-07T05:25:56;24.45;;;16.20;;
62724;SDS011;49026;52.600;4.694;2023-05-07T05:28:22;27.45;;;17.67;;
62724;SDS011;49026;52.600;4.694;2023-05-07T05:30:48;26.30;;;15.60;;
62724;SDS011;49026;52.600;4.694;2023-05-07T05:33:13;24.48;;;16.88;;
62724;SDS011;49026;52.600;4.694;2023-05-07T05:35:39;23.63;;;16.13;;
62724;SDS011;49026;52.600;4.694;2023-05-07T05:38:04;16.77;;;12.30;;
62724;SDS011;49026;52.600;4.694;2023-05-07T05:40:32;15.90;;;11.68;;
62724;SDS011;49026;52.600;4.694;2023-05-07T05:42:58;16.77;;;12.48;;
62724;SDS011;49026;52.600;4.694;2023-05-07T05:45:25;12.80;;;8.23;;
62724;SDS011;49026;52.600;4.694;2023-05-07T05:47:51;17.00;;;11.10;;
62724;SDS011;49026;52.600;4.694;2023-05-07T05:50:16;11.95;;;9.82;;
62724;SDS011;49026;52.600;4.694;2023-05-07T05:52:41;14.18;;;8.07;;
62724;SDS011;49026;52.600;4.694;2023-05-07T05:55:07;17.63;;;10.63;;
62724;SDS011;49026;52.600;4.694;2023-05-07T05:57:33;15.00;;;10.30;;
62724;SDS011;49026;52.600;4.694;2023-05-07T06:00:01;13.40;;;8.38;;
62724;SDS011;49026;52.600;4.694;2023-05-07T06:02:27;12.07;;;7.65;;
62724;SDS011;49026;52.600;4.694;2023-05-07T06:04:53;17.35;;;9.68;;
62724;SDS011;49026;52.600;4.694;2023-05-07T06:07:22;13.07;;;9.88;;
62724;SDS011;49026;52.600;4.694;2023-05-07T06:09:48;13.02;;;9.30;;
62724;SDS011;49026;52.600;4.694;2023-05-07T06:12:13;15.95;;;9.77;;
62724;SDS011;49026;52.600;4.694;2023-05-07T06:14:38;14.90;;;10.68;;
62724;SDS011;49026;52.600;4.694;2023-05-07T06:17:03;13.27;;;9.65;;
62724;SDS011;49026;52.600;4.694;2023-05-07T06:19:30;17.65;;;10.15;;
62724;SDS011;49026;52.600;4.694;2023-05-07T06:21:55;16.88;;;11.75;;
62724;SDS011;49026;52.600;4.694;2023-05-07T06:24:23;15.88;;;10.15;;
62724;SDS011;49026;52.600;4.694;2023-05-07T06:26:49;14.80;;;11.77;;
62724;SDS011;49026;52.600;4.694;2023-05-07T06:29:14;13.00;;;9.60;;
62724;SDS011;49026;52.600;4.694;2023-05-07T06:31:40;10.00;;;7.30;;
62724;SDS011;49026;52.600;4.694;2023-05-07T06:34:07;6.93;;;4.68;;
62724;SDS011;49026;52.600;4.694;2023-05-07T06:36:32;12.38;;;7.15;;
62724;SDS011;49026;52.600;4.694;2023-05-07T06:38:58;9.70;;;6.88;;
62724;SDS011;49026;52.600;4.694;2023-05-07T06:41:23;10.60;;;7.60;;
62724;SDS011;49026;52.600;4.694;2023-05-07T06:43:48;13.85;;;9.23;;
62724;SDS011;49026;52.600;4.694;2023-05-07T06:46:13;14.75;;;9.20;;
62724;SDS011;49026;52.600;4.694;2023-05-07T06:48:41;14.93;;;10.30;;
62724;SDS011;49026;52.600;4.694;2023-05-07T06:51:09;14.95;;;10.27;;
62724;SDS011;49026;52.600;4.694;2023-05-07T06:53:34;11.68;;;8.25;;
62724;SDS011;49026;52.600;4.694;2023-05-07T06:56:00;15.35;;;11.23;;
62724;SDS011;49026;52.600;4.694;2023-05-07T06:58:28;14.70;;;10.45;;
62724;SDS011;49026;52.600;4.694;2023-05-07T07:00:53;11.70;;;9.32;;
62724;SDS011;49026;52.600;4.694;2023-05-07T07:03:18;20.02;;;12.52;;
62724;SDS011;49026;52.600;4.694;2023-05-07T07:05:43;18.48;;;11.63;;
62724;SDS011;49026;52.600;4.694;2023-05-07T07:08:09;16.55;;;11.43;;
62724;SDS011;49026;52.600;4.694;2023-05-07T07:10:35;12.02;;;8.73;;
62724;SDS011;49026;52.600;4.694;2023-05-07T07:13:00;13.80;;;9.35;;
62724;SDS011;49026;52.600;4.694;2023-05-07T07:15:26;16.65;;;9.80;;
62724;SDS011;49026;52.600;4.694;2023-05-07T07:17:51;14.75;;;10.68;;
62724;SDS011;49026;52.600;4.694;2023-05-07T07:20:16;16.50;;;11.82;;
62724;SDS011;49026;52.600;4.694;2023-05-07T07:22:41;14.07;;;10.27;;
62724;SDS011;49026;52.600;4.694;2023-05-07T07:25:09;16.70;;;13.13;;
62724;SDS011;49026;52.600;4.694;2023-05-07T07:27:37;18.83;;;13.88;;
62724;SDS011;49026;52.600;4.694;2023-05-07T07:30:05;15.27;;;12.07;;
62724;SDS011;49026;52.600;4.694;2023-05-07T07:32:33;14.85;;;11.23;;
62724;SDS011;49026;52.600;4.694;2023-05-07T07:34:59;18.10;;;13.77;;
62724;SDS011;49026;52.600;4.694;2023-05-07T07:37:27;12.57;;;10.20;;
62724;SDS011;49026;52.600;4.694;2023-05-07T07:39:52;16.23;;;13.68;;
62724;SDS011;49026;52.600;4.694;2023-05-07T07:42:20;21.95;;;14.52;;
62724;SDS011;49026;52.600;4.694;2023-05-07T07:44:45;15.07;;;12.82;;
62724;SDS011;49026;52.600;4.694;2023-05-07T07:47:10;16.52;;;11.95;;
62724;SDS011;49026;52.600;4.694;2023-05-07T07:49:35;10.90;;;8.38;;
62724;SDS011;49026;52.600;4.694;2023-05-07T07:52:09;16.23;;;11.57;;
62724;SDS011;49026;52.600;4.694;2023-05-07T07:54:34;13.48;;;7.65;;
62724;SDS011;49026;52.600;4.694;2023-05-07T07:57:02;14.90;;;11.32;;
62724;SDS011;49026;52.600;4.694;2023-05-07T07:59:27;14.95;;;11.32;;
62724;SDS011;49026;52.600;4.694;2023-05-07T08:04:22;13.07;;;10.00;;
62724;SDS011;49026;52.600;4.694;2023-05-07T08:06:48;16.10;;;11.68;;
62724;SDS011;49026;52.600;4.694;2023-05-07T08:09:13;19.05;;;12.98;;
62724;SDS011;49026;52.600;4.694;2023-05-07T08:11:39;11.50;;;9.45;;
62724;SDS011;49026;52.600;4.694;2023-05-07T08:14:04;14.38;;;10.30;;
62724;SDS011;49026;52.600;4.694;2023-05-07T08:16:32;14.93;;;9.55;;
62724;SDS011;49026;52.600;4.694;2023-05-07T08:18:57;14.65;;;11.10;;
62724;SDS011;49026;52.600;4.694;2023-05-07T08:21:25;11.45;;;8.45;;
62724;SDS011;49026;52.600;4.694;2023-05-07T08:23:51;6.75;;;5.13;;
62724;SDS011;49026;52.600;4.694;2023-05-07T08:26:18;13.02;;;8.35;;
62724;SDS011;49026;52.600;4.694;2023-05-07T08:28:43;13.00;;;8.48;;
62724;SDS011;49026;52.600;4.694;2023-05-07T08:31:09;10.25;;;8.05;;
62724;SDS011;49026;52.600;4.694;2023-05-07T08:33:34;12.68;;;8.20;;
62724;SDS011;49026;52.600;4.694;2023-05-07T08:36:02;9.30;;;6.32;;
62724;SDS011;49026;52.600;4.694;2023-05-07T08:38:28;13.32;;;8.90;;
62724;SDS011;49026;52.600;4.694;2023-05-07T08:40:55;10.85;;;7.10;;
62724;SDS011;49026;52.600;4.694;2023-05-07T08:43:21;11.57;;;7.63;;
62724;SDS011;49026;52.600;4.694;2023-05-07T08:45:48;8.45;;;6.18;;
62724;SDS011;49026;52.600;4.694;2023-05-07T08:48:17;9.73;;;7.77;;
62724;SDS011;49026;52.600;4.694;2023-05-07T08:50:42;10.95;;;6.95;;
62724;SDS011;49026;52.600;4.694;2023-05-07T08:53:08;11.45;;;7.05;;
62724;SDS011;49026;52.600;4.694;2023-05-07T08:55:35;12.60;;;7.57;;
62724;SDS011;49026;52.600;4.694;2023-05-07T08:58:04;7.78;;;6.03;;
62724;SDS011;49026;52.600;4.694;2023-05-07T09:00:29;10.07;;;6.60;;
62724;SDS011;49026;52.600;4.694;2023-05-07T09:02:55;10.45;;;7.57;;
62724;SDS011;49026;52.600;4.694;2023-05-07T09:05:20;13.45;;;6.90;;
62724;SDS011;49026;52.600;4.694;2023-05-07T09:07:46;8.00;;;5.68;;
62724;SDS011;49026;52.600;4.694;2023-05-07T09:10:12;9.48;;;6.90;;
62724;SDS011;49026;52.600;4.694;2023-05-07T09:12:37;11.57;;;6.53;;
62724;SDS011;49026;52.600;4.694;2023-05-07T09:15:04;7.18;;;4.95;;
62724;SDS011;49026;52.600;4.694;2023-05-07T09:17:30;7.60;;;6.10;;
62724;SDS011;49026;52.600;4.694;2023-05-07T09:20:04;8.02;;;5.78;;
62724;SDS011;49026;52.600;4.694;2023-05-07T09:22:33;7.40;;;4.13;;
62724;SDS011;49026;52.600;4.694;2023-05-07T09:25:01;9.20;;;6.15;;
62724;SDS011;49026;52.600;4.694;2023-05-07T09:27:26;9.68;;;6.85;;
62724;SDS011;49026;52.600;4.694;2023-05-07T09:29:54;9.75;;;6.38;;
62724;SDS011;49026;52.600;4.694;2023-05-07T09:32:20;10.50;;;6.13;;
62724;SDS011;49026;52.600;4.694;2023-05-07T09:34:49;10.52;;;6.25;;
62724;SDS011;49026;52.600;4.694;2023-05-07T09:37:15;6.95;;;4.55;;
62724;SDS011;49026;52.600;4.694;2023-05-07T09:39:44;10.05;;;6.25;;
62724;SDS011;49026;52.600;4.694;2023-05-07T09:42:11;6.22;;;3.45;;
62724;SDS011;49026;52.600;4.694;2023-05-07T09:44:40;8.52;;;4.57;;
62724;SDS011;49026;52.600;4.694;2023-05-07T09:47:08;7.60;;;4.10;;
62724;SDS011;49026;52.600;4.694;2023-05-07T09:49:35;7.10;;;4.15;;
62724;SDS011;49026;52.600;4.694;2023-05-07T09:52:04;7.13;;;5.33;;
62724;SDS011;49026;52.600;4.694;2023-05-07T09:56:59;8.27;;;5.65;;
62724;SDS011;49026;52.600;4.694;2023-05-07T09:59:27;8.73;;;5.88;;
62724;SDS011;49026;52.600;4.694;2023-05-07T10:01:53;9.18;;;5.72;;
62724;SDS011;49026;52.600;4.694;2023-05-07T10:04:22;10.02;;;6.32;;
62724;SDS011;49026;52.600;4.694;2023-05-07T10:06:47;10.13;;;5.25;;
62724;SDS011;49026;52.600;4.694;2023-05-07T10:09:13;9.25;;;6.53;;
62724;SDS011;49026;52.600;4.694;2023-05-07T10:11:42;7.73;;;5.17;;
62724;SDS011;49026;52.600;4.694;2023-05-07T10:14:10;6.68;;;4.18;;
62724;SDS011;49026;52.600;4.694;2023-05-07T10:16:36;8.15;;;5.88;;
62724;SDS011;49026;52.600;4.694;2023-05-07T10:19:03;9.50;;;5.35;;
62724;SDS011;49026;52.600;4.694;2023-05-07T10:21:32;7.53;;;4.80;;
62724;SDS011;49026;52.600;4.694;2023-05-07T10:24:20;8.95;;;4.68;;
62724;SDS011;49026;52.600;4.694;2023-05-07T10:26:50;8.43;;;4.60;;
62724;SDS011;49026;52.600;4.694;2023-05-07T10:31:59;5.53;;;3.03;;
62724;SDS011;49026;52.600;4.694;2023-05-07T10:34:48;7.28;;;5.00;;
62724;SDS011;49026;52.600;4.694;2023-05-07T10:37:18;8.73;;;5.55;;
62724;SDS011;49026;52.600;4.694;2023-05-07T10:39:46;8.25;;;5.43;;
62724;SDS011;49026;52.600;4.694;2023-05-07T10:42:14;8.05;;;6.07;;
62724;SDS011;49026;52.600;4.694;2023-05-07T10:44:39;10.02;;;6.60;;
62724;SDS011;49026;52.600;4.694;2023-05-07T10:50:20;8.27;;;3.73;;
62724;SDS011;49026;52.600;4.694;2023-05-07T10:52:23;6.35;;;3.80;;
62724;SDS011;49026;52.600;4.694;2023-05-07T10:57:48;6.57;;;4.03;;
62724;SDS011;49026;52.600;4.694;2023-05-07T11:05:29;5.45;;;3.40;;
62724;SDS011;49026;52.600;4.694;2023-05-07T11:10:24;11.63;;;9.32;;
62724;SDS011;49026;52.600;4.694;2023-05-07T11:13:17;16.58;;;12.60;;
62724;SDS011;49026;52.600;4.694;2023-05-07T11:15:47;13.98;;;12.50;;
62724;SDS011;49026;52.600;4.694;2023-05-07T11:18:16;14.23;;;12.65;;
62724;SDS011;49026;52.600;4.694;2023-05-07T11:26:10;12.40;;;10.35;;
62724;SDS011;49026;52.600;4.694;2023-05-07T11:28:39;16.13;;;12.52;;
62724;SDS011;49026;52.600;4.694;2023-05-07T11:31:07;15.05;;;13.13;;
62724;SDS011;49026;52.600;4.694;2023-05-07T11:33:36;16.60;;;13.38;;
62724;SDS011;49026;52.600;4.694;2023-05-07T11:36:03;16.63;;;13.10;;
62724;SDS011;49026;52.600;4.694;2023-05-07T11:38:29;18.42;;;13.65;;
62724;SDS011;49026;52.600;4.694;2023-05-07T11:40:59;18.60;;;13.48;;
62724;SDS011;49026;52.600;4.694;2023-05-07T11:43:30;17.40;;;13.20;;
62724;SDS011;49026;52.600;4.694;2023-05-07T11:46:04;19.42;;;13.23;;
62724;SDS011;49026;52.600;4.694;2023-05-07T11:48:39;16.15;;;13.32;;
62724;SDS011;49026;52.600;4.694;2023-05-07T11:51:05;18.52;;;13.02;;
62724;SDS011;49026;52.600;4.694;2023-05-07T11:53:35;16.15;;;13.15;;
62724;SDS011;49026;52.600;4.694;2023-05-07T11:56:06;17.67;;;13.93;;
62724;SDS011;49026;52.600;4.694;2023-05-07T11:58:35;19.13;;;14.52;;
62724;SDS011;49026;52.600;4.694;2023-05-07T12:01:01;20.63;;;16.15;;
62724;SDS011;49026;52.600;4.694;2023-05-07T12:03:26;19.25;;;16.48;;
62724;SDS011;49026;52.600;4.694;2023-05-07T12:05:52;23.48;;;18.83;;
62724;SDS011;49026;52.600;4.694;2023-05-07T12:08:18;27.38;;;18.10;;
62724;SDS011;49026;52.600;4.694;2023-05-07T12:10:48;28.85;;;20.08;;
62724;SDS011;49026;52.600;4.694;2023-05-07T12:13:18;34.10;;;21.77;;
62724;SDS011;49026;52.600;4.694;2023-05-07T12:15:45;33.40;;;21.50;;
62724;SDS011;49026;52.600;4.694;2023-05-07T12:18:15;32.95;;;23.17;;
62724;SDS011;49026;52.600;4.694;2023-05-07T12:20:40;36.05;;;24.65;;
62724;SDS011;49026;52.600;4.694;2023-05-07T12:23:06;33.60;;;25.30;;
62724;SDS011;49026;52.600;4.694;2023-05-07T12:25:34;40.47;;;29.40;;
62724;SDS011;49026;52.600;4.694;2023-05-07T12:28:04;61.53;;;32.03;;
62724;SDS011;49026;52.600;4.694;2023-05-07T12:30:37;39.53;;;27.60;;
62724;SDS011;49026;52.600;4.694;2023-05-07T12:33:03;37.85;;;27.10;;
62724;SDS011;49026;52.600;4.694;2023-05-07T12:35:32;46.67;;;31.63;;
62724;SDS011;49026;52.600;4.694;2023-05-07T12:38:01;46.75;;;30.13;;
62724;SDS011;49026;52.600;4.694;2023-05-07T12:41:02;39.88;;;28.15;;
62724;SDS011;49026;52.600;4.694;2023-05-07T12:43:21;37.67;;;26.90;;
62724;SDS011;49026;52.600;4.694;2023-05-07T12:45:50;35.13;;;28.17;;
62724;SDS011;49026;52.600;4.694;2023-05-07T12:48:16;32.30;;;23.58;;
62724;SDS011;49026;52.600;4.694;2023-05-07T12:50:42;35.30;;;23.42;;
62724;SDS011;49026;52.600;4.694;2023-05-07T12:53:09;34.65;;;25.42;;
62724;SDS011;49026;52.600;4.694;2023-05-07T12:55:42;41.97;;;27.80;;
62724;SDS011;49026;52.600;4.694;2023-05-07T12:58:16;36.47;;;24.63;;
62724;SDS011;49026;52.600;4.694;2023-05-07T13:00:43;27.83;;;19.70;;
62724;SDS011;49026;52.600;4.694;2023-05-07T13:03:09;24.90;;;16.50;;
62724;SDS011;49026;52.600;4.694;2023-05-07T13:05:45;31.63;;;21.98;;
62724;SDS011;49026;52.600;4.694;2023-05-07T13:08:10;35.63;;;22.60;;
62724;SDS011;49026;52.600;4.694;2023-05-07T13:10:36;33.35;;;22.25;;
62724;SDS011;49026;52.600;4.694;2023-05-07T13:13:03;34.75;;;23.75;;
62724;SDS011;49026;52.600;4.694;2023-05-07T13:15:31;31.77;;;21.75;;
62724;SDS011;49026;52.600;4.694;2023-05-07T13:17:57;32.42;;;23.98;;
62724;SDS011;49026;52.600;4.694;2023-05-07T13:20:22;18.15;;;12.93;;
62724;SDS011;49026;52.600;4.694;2023-05-07T13:22:47;27.55;;;21.38;;
62724;SDS011;49026;52.600;4.694;2023-05-07T13:25:13;37.85;;;25.33;;
62724;SDS011;49026;52.600;4.694;2023-05-07T13:27:38;32.47;;;23.58;;
62724;SDS011;49026;52.600;4.694;2023-05-07T13:30:06;36.95;;;23.95;;
62724;SDS011;49026;52.600;4.694;2023-05-07T13:32:32;24.02;;;16.05;;
62724;SDS011;49026;52.600;4.694;2023-05-07T13:34:58;31.83;;;23.42;;
62724;SDS011;49026;52.600;4.694;2023-05-07T13:37:23;29.08;;;20.40;;
62724;SDS011;49026;52.600;4.694;2023-05-07T13:39:48;30.40;;;21.63;;
62724;SDS011;49026;52.600;4.694;2023-05-07T13:42:13;32.67;;;21.38;;
62724;SDS011;49026;52.600;4.694;2023-05-07T13:44:41;36.30;;;21.88;;
62724;SDS011;49026;52.600;4.694;2023-05-07T13:47:08;35.03;;;21.98;;
62724;SDS011;49026;52.600;4.694;2023-05-07T13:49:33;34.50;;;21.60;;
62724;SDS011;49026;52.600;4.694;2023-05-07T13:52:01;35.78;;;23.58;;
62724;SDS011;49026;52.600;4.694;2023-05-07T13:54:27;39.72;;;25.80;;
62724;SDS011;49026;52.600;4.694;2023-05-07T13:56:57;50.72;;;31.05;;
62724;SDS011;49026;52.600;4.694;2023-05-07T13:59:22;56.28;;;31.73;;
62724;SDS011;49026;52.600;4.694;2023-05-07T14:01:47;51.72;;;30.63;;
62724;SDS011;49026;52.600;4.694;2023-05-07T14:04:15;50.25;;;28.35;;
62724;SDS011;49026;52.600;4.694;2023-05-07T14:06:40;51.60;;;28.13;;
62724;SDS011;49026;52.600;4.694;2023-05-07T14:09:05;43.03;;;26.38;;
62724;SDS011;49026;52.600;4.694;2023-05-07T14:11:33;36.53;;;23.27;;
62724;SDS011;49026;52.600;4.694;2023-05-07T14:14:02;41.92;;;25.55;;
62724;SDS011;49026;52.600;4.694;2023-05-07T14:16:27;47.00;;;27.23;;
62724;SDS011;49026;52.600;4.694;2023-05-07T14:18:52;52.10;;;31.13;;
62724;SDS011;49026;52.600;4.694;2023-05-07T14:21:18;54.78;;;32.53;;
62724;SDS011;49026;52.600;4.694;2023-05-07T14:23:43;52.20;;;31.23;;
62724;SDS011;49026;52.600;4.694;2023-05-07T14:26:08;46.05;;;25.63;;
62724;SDS011;49026;52.600;4.694;2023-05-07T14:28:33;39.42;;;26.58;;
62724;SDS011;49026;52.600;4.694;2023-05-07T14:30:59;42.65;;;27.20;;
62724;SDS011;49026;52.600;4.694;2023-05-07T14:33:24;47.38;;;27.65;;
62724;SDS011;49026;52.600;4.694;2023-05-07T14:35:50;40.28;;;26.27;;
62724;SDS011;49026;52.600;4.694;2023-05-07T14:38:15;43.88;;;25.83;;
62724;SDS011;49026;52.600;4.694;2023-05-07T14:40:41;36.47;;;25.38;;
62724;SDS011;49026;52.600;4.694;2023-05-07T14:43:06;42.60;;;29.58;;
62724;SDS011;49026;52.600;4.694;2023-05-07T14:45:31;39.38;;;25.88;;
62724;SDS011;49026;52.600;4.694;2023-05-07T14:47:56;25.13;;;17.40;;
62724;SDS011;49026;52.600;4.694;2023-05-07T14:50:22;23.98;;;16.88;;
62724;SDS011;49026;52.600;4.694;2023-05-07T14:52:47;14.18;;;10.50;;